createdAt,value
2022-10-19T00:00:27.626Z,6.75
2022-10-19T00:01:27.733Z,6.76
2022-10-19T00:02:27.802Z,6.73
2022-10-19T00:03:28.502Z,6.79
2022-10-19T00:04:27.739Z,6.71
2022-10-19T00:05:27.949Z,6.73
2022-10-19T00:06:31.865Z,6.68
2022-10-19T00:07:28.502Z,6.67
2022-10-19T00:08:28.671Z,6.7
2022-10-19T00:09:28.519Z,6.68
2022-10-19T00:10:28.838Z,6.74
2022-10-19T00:11:29.111Z,6.79
2022-10-19T00:12:28.544Z,6.75
2022-10-19T00:13:28.575Z,6.73
2022-10-19T00:14:28.597Z,6.74
2022-10-19T00:15:28.632Z,6.8
2022-10-19T00:16:30.004Z,6.76
2022-10-19T00:17:28.757Z,6.75
2022-10-19T00:18:28.719Z,6.73
2022-10-19T00:19:28.684Z,6.71
2022-10-19T00:20:28.685Z,6.68
2022-10-19T00:21:28.883Z,6.67
2022-10-19T00:22:28.740Z,6.6
2022-10-19T00:23:28.783Z,6.59
2022-10-19T00:24:28.914Z,6.57
2022-10-19T00:25:28.920Z,6.65
2022-10-19T00:26:28.822Z,6.63
2022-10-19T00:27:29.027Z,6.57
2022-10-19T00:28:29.169Z,6.77
2022-10-19T00:29:28.814Z,6.69
2022-10-19T00:30:28.841Z,6.68
2022-10-19T00:31:29.056Z,6.69
2022-10-19T00:32:28.877Z,6.57
2022-10-19T00:33:28.907Z,6.6
2022-10-19T00:34:28.894Z,6.56
2022-10-19T00:35:28.882Z,6.56
2022-10-19T00:36:32.905Z,6.58
2022-10-19T00:37:29.961Z,6.59
2022-10-19T00:38:29.786Z,6.63
2022-10-19T00:39:29.720Z,6.52
2022-10-19T00:40:29.599Z,6.54
2022-10-19T00:41:30.568Z,6.51
2022-10-19T00:42:29.589Z,6.6
2022-10-19T00:43:30.995Z,6.54
2022-10-19T00:45:30.778Z,6.53
2022-10-19T00:46:32.529Z,6.52
2022-10-19T00:47:31.600Z,6.55
2022-10-19T00:48:32.896Z,6.52
2022-10-19T00:49:33.559Z,6.51
2022-10-19T00:50:31.638Z,6.5
2022-10-19T00:51:32.887Z,6.52
2022-10-19T00:52:32.440Z,6.5
2022-10-19T00:53:31.480Z,6.5
2022-10-19T00:54:32.835Z,6.51
2022-10-19T00:55:32.506Z,6.52
2022-10-19T00:56:32.396Z,6.47
2022-10-19T00:57:32.411Z,6.43
2022-10-19T00:58:31.938Z,6.46
2022-10-19T00:59:32.107Z,6.48
2022-10-19T01:00:31.862Z,6.47
2022-10-19T01:01:33.166Z,6.49
2022-10-19T01:02:31.910Z,6.44
2022-10-19T01:03:33.111Z,6.45
2022-10-19T01:04:33.740Z,6.42
2022-10-19T01:05:33.346Z,6.4
2022-10-19T01:06:32.663Z,6.39
2022-10-19T01:07:32.407Z,6.39
2022-10-19T01:08:31.765Z,6.44
2022-10-19T01:09:31.720Z,6.47
2022-10-19T01:11:39.749Z,6.51
2022-10-19T01:13:46.030Z,6.44
2022-10-19T01:18:04.884Z,6.43
2022-10-19T01:20:15.151Z,6.46
2022-10-19T01:26:34.153Z,6.51
2022-10-19T01:35:50.066Z,6.48
2022-10-19T01:37:55.359Z,6.44
2022-10-19T01:38:56.650Z,6.52
2022-10-19T01:39:54.698Z,6.47
2022-10-19T01:47:03.671Z,6.53
2022-10-19T01:49:08.390Z,6.47
2022-10-19T01:52:13.124Z,6.44
2022-10-19T01:53:11.909Z,6.46
2022-10-19T01:54:13.596Z,6.43
2022-10-19T01:55:13.332Z,6.44
2022-10-19T01:56:12.453Z,6.43
2022-10-19T01:57:13.882Z,6.44
2022-10-19T01:58:15.002Z,6.37
2022-10-19T01:59:12.228Z,6.41
2022-10-19T02:00:13.334Z,6.41
2022-10-19T02:01:13.058Z,6.38
2022-10-19T02:02:13.458Z,6.4
2022-10-19T02:03:12.686Z,6.38
2022-10-19T02:04:17.135Z,6.38
2022-10-19T02:05:14.155Z,6.35
2022-10-19T02:06:13.723Z,6.39
2022-10-19T02:07:13.694Z,6.38
2022-10-19T02:08:20.293Z,6.36
2022-10-19T02:09:16.716Z,6.36
2022-10-19T02:10:17.045Z,6.35
2022-10-19T02:11:16.936Z,6.35
2022-10-19T02:12:16.766Z,6.36
2022-10-19T02:13:16.741Z,6.33
2022-10-19T02:14:18.075Z,6.31
2022-10-19T02:15:19.360Z,6.31
2022-10-19T02:17:21.212Z,6.3
2022-10-19T02:18:19.589Z,6.28
2022-10-19T02:19:18.438Z,6.31
2022-10-19T02:20:18.167Z,6.27
2022-10-19T02:21:18.153Z,6.29
2022-10-19T02:22:17.761Z,6.31
2022-10-19T02:23:20.682Z,6.29
2022-10-19T02:24:17.813Z,6.28
2022-10-19T02:25:18.368Z,6.26
2022-10-19T02:26:18.037Z,6.28
2022-10-19T02:27:18.009Z,6.27
2022-10-19T02:28:18.128Z,6.25
2022-10-19T02:29:18.066Z,6.24
2022-10-19T02:30:19.914Z,6.25
2022-10-19T02:31:17.855Z,6.25
2022-10-19T02:32:18.119Z,6.23
2022-10-19T02:33:18.112Z,6.2
2022-10-19T02:34:17.933Z,6.21
2022-10-19T02:35:18.316Z,6.23
2022-10-19T02:36:18.355Z,6.26
2022-10-19T02:37:20.989Z,6.21
2022-10-19T02:38:21.516Z,6.17
2022-10-19T02:39:20.289Z,6.17
2022-10-19T02:40:19.915Z,6.2
2022-10-19T02:41:24.433Z,6.18
2022-10-19T02:43:24.246Z,6.15
2022-10-19T02:44:26.147Z,6.2
2022-10-19T02:45:27.402Z,6.15
2022-10-19T02:46:27.648Z,6.14
2022-10-19T02:47:26.935Z,6.14
2022-10-19T02:48:25.425Z,6.16
2022-10-19T02:49:24.738Z,6.14
2022-10-19T02:50:24.088Z,6.13
2022-10-19T02:51:28.078Z,6.09
2022-10-19T02:52:24.301Z,6.08
2022-10-19T02:53:24.304Z,6.08
2022-10-19T02:54:24.765Z,6.06
2022-10-19T02:55:24.346Z,6.1
2022-10-19T02:56:24.373Z,6.09
2022-10-19T02:57:25.232Z,6.03
2022-10-19T02:58:24.375Z,6.03
2022-10-19T02:59:25.056Z,6.03
2022-10-19T03:00:24.391Z,5.99
2022-10-19T03:01:24.891Z,5.98
2022-10-19T03:02:24.667Z,5.99
2022-10-19T03:03:24.473Z,5.95
2022-10-19T03:04:24.491Z,5.93
2022-10-19T03:05:24.462Z,5.92
2022-10-19T03:06:24.652Z,5.9
2022-10-19T03:07:24.820Z,5.87
2022-10-19T03:08:24.474Z,5.9
2022-10-19T03:09:24.509Z,5.9
2022-10-19T03:10:24.521Z,5.9
2022-10-19T03:11:24.591Z,5.9
2022-10-19T03:12:24.624Z,5.91
2022-10-19T03:13:24.848Z,5.9
2022-10-19T03:14:24.563Z,5.87
2022-10-19T03:15:24.567Z,5.87
2022-10-19T03:16:24.747Z,5.87
2022-10-19T03:17:24.587Z,5.84
2022-10-19T03:18:24.638Z,5.88
2022-10-19T03:19:24.877Z,5.87
2022-10-19T03:20:24.643Z,5.88
2022-10-19T03:21:24.698Z,5.86
2022-10-19T03:22:24.664Z,5.83
2022-10-19T03:23:24.683Z,5.83
2022-10-19T03:24:24.695Z,5.85
2022-10-19T03:25:24.735Z,5.82
2022-10-19T03:26:24.777Z,5.79
2022-10-19T03:27:24.772Z,5.8
2022-10-19T03:28:24.764Z,5.78
2022-10-19T03:29:24.795Z,5.79
2022-10-19T03:30:24.788Z,5.77
2022-10-19T03:31:24.966Z,5.78
2022-10-19T03:32:24.796Z,5.77
2022-10-19T03:34:24.817Z,5.74
2022-10-19T03:35:25.084Z,5.74
2022-10-19T03:37:28.235Z,5.72
2022-10-19T03:38:28.269Z,5.73
2022-10-19T03:39:28.270Z,5.72
2022-10-19T03:40:28.273Z,5.71
2022-10-19T03:41:29.401Z,5.72
2022-10-19T03:42:28.346Z,5.7
2022-10-19T03:43:28.323Z,5.7
2022-10-19T03:44:28.321Z,5.7
2022-10-19T03:45:28.341Z,5.69
2022-10-19T03:46:28.394Z,5.69
2022-10-19T03:47:28.623Z,5.73
2022-10-19T03:48:28.399Z,5.71
2022-10-19T03:49:28.390Z,5.68
2022-10-19T03:50:28.401Z,5.73
2022-10-19T03:51:29.399Z,5.67
2022-10-19T03:52:28.462Z,5.66
2022-10-19T03:53:28.908Z,5.68
2022-10-19T03:54:28.462Z,5.63
2022-10-19T03:55:29.833Z,5.64
2022-10-19T03:56:29.422Z,5.62
2022-10-19T03:57:28.649Z,5.61
2022-10-19T03:58:29.002Z,5.61
2022-10-19T03:59:28.560Z,5.59
2022-10-19T04:00:28.533Z,5.56
2022-10-19T04:02:33.062Z,5.53
2022-10-19T04:03:33.006Z,5.52
2022-10-19T04:04:33.153Z,5.51
2022-10-19T04:05:32.944Z,5.49
2022-10-19T04:06:34.819Z,5.51
2022-10-19T04:07:33.276Z,5.51
2022-10-19T04:08:33.274Z,5.47
2022-10-19T04:09:32.928Z,5.44
2022-10-19T04:10:32.956Z,5.45
2022-10-19T04:11:33.727Z,5.43
2022-10-19T04:12:33.158Z,5.4
2022-10-19T04:13:33.587Z,5.39
2022-10-19T04:14:39.361Z,5.41
2022-10-19T04:15:34.037Z,5.37
2022-10-19T04:16:34.281Z,5.34
2022-10-19T04:17:34.373Z,5.33
2022-10-19T04:18:34.084Z,5.33
2022-10-19T04:19:34.069Z,5.3
2022-10-19T04:20:34.078Z,5.24
2022-10-19T04:21:38.161Z,5.22
2022-10-19T04:22:34.342Z,5.15
2022-10-19T04:23:35.147Z,5.13
2022-10-19T04:24:34.371Z,5.13
2022-10-19T04:25:34.410Z,5.08
2022-10-19T04:26:37.851Z,5.07
2022-10-19T04:27:34.672Z,5.01
2022-10-19T04:28:34.561Z,4.96
2022-10-19T04:29:34.786Z,4.94
2022-10-19T04:30:34.445Z,4.94
2022-10-19T04:31:34.909Z,4.94
2022-10-19T04:32:34.476Z,4.92
2022-10-19T04:33:34.793Z,4.88
2022-10-19T04:34:37.692Z,4.9
2022-10-19T04:35:36.352Z,4.9
2022-10-19T04:36:36.566Z,4.92
2022-10-19T04:37:36.675Z,4.93
2022-10-19T04:38:36.755Z,4.92
2022-10-19T04:39:36.375Z,4.92
2022-10-19T04:40:36.428Z,4.93
2022-10-19T04:41:37.381Z,4.92
2022-10-19T04:42:36.433Z,4.92
2022-10-19T04:43:37.117Z,4.9
2022-10-19T04:44:36.471Z,4.9
2022-10-19T04:45:36.460Z,4.9
2022-10-19T04:46:36.495Z,4.89
2022-10-19T04:47:36.675Z,4.89
2022-10-19T04:48:37.260Z,4.83
2022-10-19T04:49:36.484Z,4.77
2022-10-19T04:50:36.554Z,4.73
2022-10-19T04:51:36.511Z,4.65
2022-10-19T04:52:36.554Z,4.53
2022-10-19T04:53:37.706Z,4.5
2022-10-19T04:54:36.568Z,4.46
2022-10-19T04:55:40.423Z,4.43
2022-10-19T04:56:36.652Z,4.4
2022-10-19T04:57:37.084Z,4.42
2022-10-19T04:58:36.644Z,4.37
2022-10-19T04:59:37.609Z,4.33
2022-10-19T05:00:39.483Z,4.28
2022-10-19T05:01:36.777Z,4.26
2022-10-19T05:02:36.702Z,4.23
2022-10-19T05:03:36.715Z,4.22
2022-10-19T05:04:41.813Z,4.19
2022-10-19T05:05:41.368Z,4.14
2022-10-19T05:06:41.381Z,4.14
2022-10-19T05:07:41.387Z,4.15
2022-10-19T05:08:41.777Z,4.15
2022-10-19T05:09:41.382Z,4.15
2022-10-19T05:10:44.236Z,4.14
2022-10-19T05:11:43.238Z,4.07
2022-10-19T05:12:43.238Z,4.05
2022-10-19T05:13:43.504Z,4.03
2022-10-19T05:14:43.265Z,3.96
2022-10-19T05:15:43.268Z,3.94
2022-10-19T05:16:43.283Z,3.92
2022-10-19T05:17:43.387Z,3.9
2022-10-19T05:18:46.330Z,3.89
2022-10-19T05:19:43.349Z,3.94
2022-10-19T05:20:43.326Z,3.93
2022-10-19T05:21:43.344Z,3.84
2022-10-19T05:22:43.368Z,3.75
2022-10-19T05:23:43.950Z,3.68
2022-10-19T05:24:43.605Z,3.67
2022-10-19T05:25:43.438Z,3.63
2022-10-19T05:26:43.420Z,3.6
2022-10-19T05:27:43.437Z,3.61
2022-10-19T05:28:47.187Z,3.59
2022-10-19T05:29:43.452Z,3.6
2022-10-19T05:30:48.854Z,3.58
2022-10-19T05:31:45.760Z,3.54
2022-10-19T05:32:45.434Z,3.62
2022-10-19T05:33:45.652Z,3.6
2022-10-19T05:34:45.499Z,3.53
2022-10-19T05:35:45.454Z,3.53
2022-10-19T05:36:45.473Z,3.53
2022-10-19T05:37:45.499Z,3.53
2022-10-19T05:38:46.293Z,3.52
2022-10-19T05:39:45.543Z,3.52
2022-10-19T05:40:47.543Z,3.53
2022-10-19T05:41:47.259Z,3.48
2022-10-19T05:42:46.617Z,3.47
2022-10-19T05:43:47.236Z,3.47
2022-10-19T05:44:46.663Z,3.45
2022-10-19T05:45:46.654Z,3.43
2022-10-19T05:46:46.856Z,3.46
2022-10-19T05:47:46.669Z,3.45
2022-10-19T05:48:46.742Z,3.49
2022-10-19T05:49:47.456Z,3.56
2022-10-19T05:51:47.609Z,3.52
2022-10-19T05:52:48.735Z,3.61
2022-10-19T05:53:46.996Z,3.6
2022-10-19T05:54:46.894Z,3.58
2022-10-19T05:55:46.931Z,3.56
2022-10-19T05:56:47.249Z,3.6
2022-10-19T05:57:47.171Z,3.55
2022-10-19T05:58:47.403Z,3.56
2022-10-19T05:59:47.026Z,3.51
2022-10-19T06:00:53.818Z,3.57
2022-10-19T06:01:50.124Z,3.4
2022-10-19T06:02:50.054Z,3.37
2022-10-19T06:03:53.844Z,3.35
2022-10-19T06:04:50.171Z,3.35
2022-10-19T06:05:51.010Z,3.33
2022-10-19T06:06:50.546Z,3.32
2022-10-19T06:07:50.529Z,3.31
2022-10-19T06:08:51.309Z,3.29
2022-10-19T06:09:50.601Z,3.26
2022-10-19T06:10:50.903Z,3.2
2022-10-19T06:11:50.614Z,3.19
2022-10-19T06:12:50.593Z,3.19
2022-10-19T06:13:51.453Z,3.15
2022-10-19T06:14:51.101Z,3.13
2022-10-19T06:15:51.013Z,3.27
2022-10-19T06:16:50.633Z,3.12
2022-10-19T06:17:50.676Z,3.3
2022-10-19T06:18:51.983Z,3.17
2022-10-19T06:19:51.111Z,3.19
2022-10-19T06:20:51.300Z,3.18
2022-10-19T06:21:50.712Z,3.2
2022-10-19T06:22:51.000Z,3.21
2022-10-19T06:23:55.180Z,3.17
2022-10-19T06:24:51.390Z,3.14
2022-10-19T06:25:51.382Z,3.22
2022-10-19T06:26:51.362Z,3.19
2022-10-19T06:27:51.422Z,3.14
2022-10-19T06:28:51.459Z,3.15
2022-10-19T06:29:51.482Z,3.16
2022-10-19T06:30:51.524Z,3.17
2022-10-19T06:31:51.476Z,3.22
2022-10-19T06:32:51.783Z,3.2
2022-10-19T06:33:51.543Z,3.15
2022-10-19T06:34:55.727Z,3.04
2022-10-19T06:35:52.923Z,3
2022-10-19T06:36:52.936Z,2.97
2022-10-19T06:37:55.491Z,2.89
2022-10-19T06:38:53.006Z,2.86
2022-10-19T06:39:53.048Z,2.88
2022-10-19T06:40:52.968Z,2.8
2022-10-19T06:41:52.995Z,2.86
2022-10-19T06:42:54.993Z,2.8
2022-10-19T06:43:54.128Z,2.84
2022-10-19T06:44:53.066Z,2.75
2022-10-19T06:45:53.426Z,2.73
2022-10-19T06:46:53.305Z,2.75
2022-10-19T06:47:53.107Z,2.83
2022-10-19T06:48:54.154Z,2.81
2022-10-19T06:49:53.797Z,2.84
2022-10-19T06:51:00.540Z,2.8
2022-10-19T06:51:56.730Z,2.82
2022-10-19T06:52:57.544Z,2.89
2022-10-19T06:53:57.514Z,2.84
2022-10-19T06:54:56.826Z,2.81
2022-10-19T06:55:57.752Z,2.77
2022-10-19T06:56:56.800Z,2.84
2022-10-19T06:57:58.300Z,2.91
2022-10-19T06:58:57.398Z,2.86
2022-10-19T06:59:56.968Z,2.88
2022-10-19T07:00:57.830Z,3.11
2022-10-19T07:01:56.922Z,3
2022-10-19T07:02:58.712Z,2.96
2022-10-19T07:03:56.946Z,2.9
2022-10-19T07:04:57.198Z,2.89
2022-10-19T07:06:01.039Z,2.95
2022-10-19T07:06:57.215Z,2.93
2022-10-19T07:07:57.768Z,2.9
2022-10-19T07:08:57.271Z,2.78
2022-10-19T07:09:57.287Z,2.8
2022-10-19T07:10:58.595Z,2.9
2022-10-19T07:11:57.313Z,2.84
2022-10-19T07:12:57.405Z,2.85
2022-10-19T07:13:57.353Z,2.99
2022-10-19T07:14:57.408Z,2.93
2022-10-19T07:15:58.220Z,2.83
2022-10-19T07:16:57.399Z,2.88
2022-10-19T07:17:57.388Z,2.83
2022-10-19T07:18:57.438Z,2.87
2022-10-19T07:19:57.588Z,2.92
2022-10-19T07:20:58.062Z,3.03
2022-10-19T07:21:57.467Z,2.86
2022-10-19T07:22:57.493Z,2.96
2022-10-19T07:23:57.536Z,3.09
2022-10-19T07:24:57.808Z,2.98
2022-10-19T07:25:57.552Z,3.01
2022-10-19T07:26:57.565Z,2.83
2022-10-19T07:27:57.561Z,2.82
2022-10-19T07:28:57.587Z,2.85
2022-10-19T07:29:57.605Z,2.82
2022-10-19T07:30:57.902Z,2.86
2022-10-19T07:31:57.714Z,2.91
2022-10-19T07:32:57.880Z,2.95
2022-10-19T07:34:01.515Z,2.88
2022-10-19T07:34:57.713Z,2.93
2022-10-19T07:36:04.966Z,2.89
2022-10-19T07:37:01.168Z,2.86
2022-10-19T07:38:01.170Z,2.94
2022-10-19T07:39:01.740Z,2.93
2022-10-19T07:40:01.317Z,2.91
2022-10-19T07:41:02.587Z,3
2022-10-19T07:42:01.267Z,2.99
2022-10-19T07:43:01.772Z,2.98
2022-10-19T07:44:01.812Z,2.91
2022-10-19T07:45:01.284Z,2.84
2022-10-19T07:46:05.786Z,2.85
2022-10-19T07:47:02.009Z,2.84
2022-10-19T07:48:02.001Z,2.94
2022-10-19T07:49:02.757Z,2.94
2022-10-19T07:50:02.072Z,2.9
2022-10-19T07:51:02.963Z,2.9
2022-10-19T07:52:02.085Z,2.99
2022-10-19T07:53:02.089Z,3
2022-10-19T07:54:02.296Z,3.07
2022-10-19T07:55:02.126Z,3.04
2022-10-19T07:56:03.021Z,2.98
2022-10-19T07:57:02.190Z,2.95
2022-10-19T07:58:02.420Z,2.87
2022-10-19T07:59:02.733Z,2.85
2022-10-19T08:00:03.598Z,2.9
2022-10-19T08:01:03.738Z,2.88
2022-10-19T08:02:02.400Z,2.89
2022-10-19T08:03:43.121Z,2.93
2022-10-19T08:05:09.161Z,3.1
2022-10-19T08:06:10.232Z,3.05
2022-10-19T08:07:07.856Z,3.04
2022-10-19T08:08:07.649Z,3.04
2022-10-19T08:09:07.740Z,3.14
2022-10-19T08:10:08.205Z,3.17
2022-10-19T08:11:12.423Z,3.17
2022-10-19T08:12:13.812Z,3.19
2022-10-19T08:13:11.080Z,3.09
2022-10-19T08:14:11.088Z,3.12
2022-10-19T08:15:11.354Z,3.22
2022-10-19T08:17:11.811Z,3.04
2022-10-19T08:18:11.675Z,3.07
2022-10-19T08:19:15.467Z,3.05
2022-10-19T08:20:12.170Z,3.07
2022-10-19T08:21:12.149Z,3.14
2022-10-19T08:22:12.422Z,3.12
2022-10-19T08:23:12.132Z,3.19
2022-10-19T08:24:15.968Z,3.16
2022-10-19T08:25:12.831Z,3.11
2022-10-19T08:26:12.601Z,3.13
2022-10-19T08:27:12.891Z,3.14
2022-10-19T08:28:12.823Z,3.1
2022-10-19T08:29:19.595Z,3.09
2022-10-19T08:30:16.226Z,3.13
2022-10-19T08:31:18.271Z,3.09
2022-10-19T08:32:16.241Z,3.1
2022-10-19T08:33:16.395Z,3.12
2022-10-19T08:34:16.888Z,3.2
2022-10-19T08:35:17.228Z,3.22
2022-10-19T08:36:16.699Z,3.21
2022-10-19T08:37:25.924Z,3.2
2022-10-19T08:38:19.966Z,3.21
2022-10-19T08:39:19.693Z,3.14
2022-10-19T08:40:22.777Z,3.15
2022-10-19T08:42:24.648Z,3.21
2022-10-19T08:43:30.357Z,3.16
2022-10-19T08:45:32.271Z,3.16
2022-10-19T08:46:38.650Z,3.18
2022-10-19T08:48:33.573Z,3.15
2022-10-19T08:49:31.703Z,3.17
2022-10-19T08:51:37.084Z,3.09
2022-10-19T08:52:35.422Z,3.1
2022-10-19T08:55:44.172Z,3.23
2022-10-19T08:56:52.184Z,3.23
2022-10-19T09:04:02.613Z,3.36
2022-10-19T09:05:03.343Z,3.43
2022-10-19T09:08:06.781Z,3.51
2022-10-19T09:09:06.512Z,3.45
2022-10-19T09:11:09.335Z,3.38
2022-10-19T09:12:06.992Z,3.33
2022-10-19T09:16:15.498Z,3.34
2022-10-19T09:17:14.899Z,3.41
2022-10-19T09:18:18.704Z,3.41
2022-10-19T09:20:19.442Z,3.49
2022-10-19T09:23:24.660Z,3.38
2022-10-19T09:25:25.142Z,3.34
2022-10-19T09:26:26.897Z,3.29
2022-10-19T09:27:24.294Z,3.37
2022-10-19T09:30:27.755Z,3.44
2022-10-19T09:32:32.616Z,3.53
2022-10-19T09:34:36.533Z,3.59
2022-10-19T09:35:37.190Z,3.65
2022-10-19T09:36:50.069Z,3.53
2022-10-19T09:37:40.852Z,3.54
2022-10-19T09:38:37.532Z,3.51
2022-10-19T09:39:37.522Z,3.67
2022-10-19T09:40:37.580Z,3.87
2022-10-19T09:41:43.988Z,3.67
2022-10-19T09:42:40.868Z,3.55
2022-10-19T09:43:43.461Z,3.54
2022-10-19T09:44:40.947Z,3.58
2022-10-19T09:47:47.725Z,3.64
2022-10-19T09:48:49.270Z,3.69
2022-10-19T09:49:46.674Z,3.72
2022-10-19T09:50:46.072Z,3.7
2022-10-19T09:51:52.446Z,3.67
2022-10-19T09:52:49.983Z,3.72
2022-10-19T09:53:57.619Z,3.72
2022-10-19T09:54:51.202Z,3.72
2022-10-19T09:55:53.056Z,3.66
2022-10-19T09:56:53.319Z,3.59
2022-10-19T09:57:50.615Z,3.57
2022-10-19T09:58:51.117Z,3.6
2022-10-19T09:59:51.269Z,3.64
2022-10-19T10:00:50.885Z,3.66
2022-10-19T10:02:52.566Z,3.59
2022-10-19T10:03:53.881Z,3.58
2022-10-19T10:04:56.380Z,3.55
2022-10-19T10:05:52.907Z,3.5
2022-10-19T10:06:54.368Z,3.46
2022-10-19T10:07:54.942Z,3.44
2022-10-19T10:08:54.982Z,3.46
2022-10-19T10:09:53.051Z,3.47
2022-10-19T10:10:56.142Z,3.41
2022-10-19T10:12:53.031Z,3.5
2022-10-19T10:13:54.349Z,3.48
2022-10-19T10:14:53.372Z,3.49
2022-10-19T10:15:57.389Z,3.45
2022-10-19T10:16:57.702Z,3.46
2022-10-19T10:17:55.698Z,3.46
2022-10-19T10:18:56.059Z,3.43
2022-10-19T10:22:02.963Z,3.45
2022-10-19T10:23:03.067Z,3.39
2022-10-19T10:25:02.662Z,3.42
2022-10-19T10:26:03.073Z,3.37
2022-10-19T10:27:03.716Z,3.37
2022-10-19T10:29:03.405Z,3.4
2022-10-19T10:30:07.773Z,3.36
2022-10-19T10:31:05.781Z,3.39
2022-10-19T10:32:06.112Z,3.38
2022-10-19T10:33:13.333Z,3.43
2022-10-19T10:34:23.182Z,3.4
2022-10-19T10:35:17.718Z,3.38
2022-10-19T10:36:10.413Z,3.46
2022-10-19T10:37:18.434Z,3.44
2022-10-19T10:38:14.331Z,3.42
2022-10-19T10:39:16.604Z,3.45
2022-10-19T10:41:18.038Z,3.48
2022-10-19T10:42:18.799Z,3.48
2022-10-19T10:43:17.874Z,3.38
2022-10-19T10:44:19.514Z,3.43
2022-10-19T10:45:30.488Z,3.46
2022-10-19T10:46:27.049Z,3.45
2022-10-19T10:47:25.051Z,3.47
2022-10-19T10:50:34.818Z,3.39
2022-10-19T10:52:34.770Z,3.36
2022-10-19T10:53:36.140Z,3.33
2022-10-19T10:54:34.519Z,3.39
2022-10-19T10:55:34.980Z,3.26
2022-10-19T10:56:34.568Z,3.26
2022-10-19T10:57:38.550Z,3.24
2022-10-19T10:58:38.685Z,3.18
2022-10-19T10:59:43.056Z,3.13
2022-10-19T11:00:37.137Z,3.14
2022-10-19T11:01:40.009Z,3.17
2022-10-19T11:02:42.585Z,3.21
2022-10-19T11:03:41.962Z,3.15
2022-10-19T11:04:40.965Z,3.16
2022-10-19T11:05:41.809Z,3.2
2022-10-19T11:06:44.525Z,3.15
2022-10-19T11:07:43.601Z,3.23
2022-10-19T11:11:53.511Z,3.21
2022-10-19T11:12:56.258Z,3.24
2022-10-19T11:17:06.072Z,3.32
2022-10-19T11:20:07.364Z,3.61
2022-10-19T11:23:18.117Z,3.57
2022-10-19T11:30:32.594Z,3.65
2022-10-19T11:35:45.544Z,3.63
2022-10-19T11:36:49.954Z,3.61
2022-10-19T11:50:31.170Z,3.73
2022-10-19T11:51:27.710Z,3.77
2022-10-19T11:56:51.265Z,3.76
2022-10-19T11:57:30.961Z,3.66
2022-10-19T11:58:35.060Z,3.67
2022-10-19T11:59:45.745Z,3.57
2022-10-19T12:00:39.813Z,3.55
2022-10-19T12:08:02.426Z,4.14
2022-10-19T12:09:12.970Z,4.15
2022-10-19T12:10:06.819Z,4.23
2022-10-19T12:13:10.491Z,4.37
2022-10-19T12:14:12.626Z,4.28
2022-10-19T12:16:14.063Z,4.03
2022-10-19T12:20:25.143Z,3.98
2022-10-19T12:22:28.119Z,3.85
2022-10-19T12:23:29.992Z,3.89
2022-10-19T12:24:27.841Z,3.86
2022-10-19T12:25:26.939Z,3.82
2022-10-19T12:26:29.385Z,3.75
2022-10-19T12:27:29.687Z,3.8
2022-10-19T12:28:31.064Z,3.82
2022-10-19T12:29:33.114Z,3.86
2022-10-19T12:30:29.526Z,3.91
2022-10-19T12:31:30.358Z,3.98
2022-10-19T12:32:33.688Z,4
2022-10-19T12:37:44.461Z,3.85
2022-10-19T12:38:49.464Z,3.83
2022-10-19T12:42:51.134Z,3.8
2022-10-19T12:47:00.829Z,3.58
2022-10-19T12:50:07.433Z,3.55
2022-10-19T12:51:07.870Z,3.53
2022-10-19T12:52:06.235Z,3.48
2022-10-19T12:53:06.068Z,3.4
2022-10-19T12:54:08.332Z,3.44
2022-10-19T12:58:20.624Z,3.4
2022-10-19T12:59:23.306Z,3.4
2022-10-19T13:00:21.913Z,3.38
2022-10-19T13:01:27.807Z,3.29
2022-10-19T13:02:27.399Z,3.3
2022-10-19T13:03:29.082Z,3.3
2022-10-19T13:04:27.749Z,3.32
2022-10-19T13:05:28.804Z,3.3
2022-10-19T13:06:31.295Z,3.37
2022-10-19T13:07:32.200Z,3.46
2022-10-19T13:08:40.856Z,3.38
2022-10-19T13:09:36.935Z,3.35
2022-10-19T13:10:33.831Z,3.37
2022-10-19T13:12:44.345Z,3.35
2022-10-19T13:14:51.054Z,3.39
2022-10-19T13:15:51.500Z,3.36
2022-10-19T13:17:45.854Z,3.39
2022-10-19T13:19:48.889Z,3.36
2022-10-19T13:20:53.072Z,3.41
2022-10-19T13:34:18.981Z,3.48
2022-10-19T13:36:21.714Z,3.56
2022-10-19T13:37:21.705Z,3.57
2022-10-19T13:38:23.417Z,3.57
2022-10-19T13:39:21.596Z,3.57
2022-10-19T13:40:24.518Z,3.55
2022-10-19T13:41:23.488Z,3.53
2022-10-19T13:42:25.853Z,3.58
2022-10-19T13:43:24.910Z,3.58
2022-10-19T13:44:30.989Z,3.56
2022-10-19T13:45:23.173Z,3.59
2022-10-19T13:47:34.341Z,3.63
2022-10-19T13:48:37.854Z,3.61
2022-10-19T13:49:43.511Z,3.58
2022-10-19T14:00:13.672Z,3.46
2022-10-19T14:03:20.260Z,3.4
2022-10-19T14:04:20.522Z,3.42
2022-10-19T14:05:24.338Z,3.43
2022-10-19T14:07:23.885Z,3.42
2022-10-19T14:10:33.061Z,3.42
2022-10-19T14:11:43.828Z,3.39
2022-10-19T14:12:33.752Z,3.41
2022-10-19T14:13:31.063Z,3.38
2022-10-19T14:14:30.596Z,3.37
2022-10-19T14:15:34.248Z,3.32
2022-10-19T14:16:30.836Z,3.36
2022-10-19T14:17:31.283Z,3.35
2022-10-19T14:18:32.641Z,3.35
2022-10-19T14:19:32.976Z,3.38
2022-10-19T14:20:38.046Z,3.37
2022-10-19T14:21:34.998Z,3.4
2022-10-19T14:22:35.830Z,3.38
2022-10-19T14:23:35.919Z,3.38
2022-10-19T14:24:35.547Z,3.36
2022-10-19T14:25:34.923Z,3.37
2022-10-19T14:26:34.722Z,3.36
2022-10-19T14:27:35.616Z,3.35
2022-10-19T14:28:34.971Z,3.35
2022-10-19T14:29:42.256Z,3.33
2022-10-19T14:30:39.023Z,3.34
2022-10-19T14:31:39.262Z,3.28
2022-10-19T14:33:40.402Z,3.32
2022-10-19T14:34:40.042Z,3.33
2022-10-19T14:35:40.227Z,3.34
2022-10-19T14:36:42.891Z,3.37
2022-10-19T14:37:43.096Z,3.34
2022-10-19T14:38:41.265Z,3.37
2022-10-19T14:39:39.748Z,3.38
2022-10-19T14:40:41.333Z,3.34
2022-10-19T14:41:39.711Z,3.3
2022-10-19T14:42:41.363Z,3.28
2022-10-19T14:43:39.775Z,3.26
2022-10-19T14:44:41.914Z,3.22
2022-10-19T14:45:39.846Z,3.19
2022-10-19T14:46:40.062Z,3.24
2022-10-19T14:47:50.701Z,3.13
2022-10-19T14:48:43.673Z,3.11
2022-10-19T14:49:42.576Z,3.08
2022-10-19T14:50:47.012Z,3.15
2022-10-19T14:51:50.088Z,3.15
2022-10-19T14:52:48.000Z,3.07
2022-10-19T14:53:53.770Z,3.14
2022-10-19T14:54:54.568Z,3.18
2022-10-19T14:55:52.932Z,3.17
2022-10-19T14:57:53.286Z,3.14
2022-10-19T14:59:58.900Z,3.06
2022-10-19T15:00:55.334Z,3.01
2022-10-19T15:01:56.772Z,3
2022-10-19T15:03:57.093Z,3
2022-10-19T15:04:58.523Z,2.96
2022-10-19T15:06:00.691Z,2.97
2022-10-19T15:06:58.219Z,2.96
2022-10-19T15:07:57.228Z,2.95
2022-10-19T15:10:00.728Z,3.02
2022-10-19T15:10:58.680Z,3
2022-10-19T15:13:02.683Z,2.91
2022-10-19T15:21:19.214Z,2.83
2022-10-19T15:22:20.447Z,2.78
2022-10-19T15:24:27.531Z,2.67
2022-10-19T15:25:34.020Z,2.76
2022-10-19T15:26:29.391Z,2.74
2022-10-19T15:27:30.501Z,2.7
2022-10-19T15:28:40.719Z,2.74
2022-10-19T15:29:29.055Z,2.75
2022-10-19T15:30:31.395Z,2.73
2022-10-19T15:31:28.830Z,2.73
2022-10-19T15:32:30.803Z,2.66
2022-10-19T15:33:28.597Z,2.62
2022-10-19T15:34:29.553Z,2.65
2022-10-19T15:35:30.187Z,2.63
2022-10-19T15:36:29.786Z,2.63
2022-10-19T15:37:28.502Z,2.66
2022-10-19T15:38:28.537Z,2.59
2022-10-19T15:39:39.798Z,2.6
2022-10-19T15:40:32.463Z,2.58
2022-10-19T15:41:36.799Z,2.55
2022-10-19T15:42:38.237Z,2.53
2022-10-19T15:43:38.716Z,2.53
2022-10-19T15:44:42.635Z,2.46
2022-10-19T15:45:39.241Z,2.48
2022-10-19T15:48:45.170Z,2.48
2022-10-19T15:50:46.984Z,2.39
2022-10-19T15:51:46.440Z,2.38
2022-10-19T15:52:45.200Z,2.37
2022-10-19T15:53:45.155Z,2.36
2022-10-19T15:54:48.834Z,2.27
2022-10-19T15:55:45.922Z,2.3
2022-10-19T15:56:46.822Z,2.36
2022-10-19T15:57:45.261Z,2.31
2022-10-19T15:58:48.246Z,2.23
2022-10-19T15:59:45.305Z,2.26
2022-10-19T16:00:45.332Z,2.24
2022-10-19T16:01:46.165Z,2.23
2022-10-19T16:02:45.353Z,2.23
2022-10-19T16:03:46.112Z,2.21
2022-10-19T16:04:45.363Z,2.18
2022-10-19T16:05:45.365Z,2.17
2022-10-19T16:06:45.793Z,2.15
2022-10-19T16:07:45.784Z,2.1
2022-10-19T16:08:45.441Z,2.02
2022-10-19T16:09:45.382Z,2.03
2022-10-19T16:10:45.392Z,1.96
2022-10-19T16:11:45.425Z,1.87
2022-10-19T16:12:45.479Z,1.85
2022-10-19T16:13:45.453Z,1.81
2022-10-19T16:14:45.450Z,1.89
2022-10-19T16:15:49.975Z,1.86
2022-10-19T16:16:48.878Z,1.85
2022-10-19T16:17:49.256Z,1.75
2022-10-19T16:18:48.273Z,1.8
2022-10-19T16:19:48.145Z,1.86
2022-10-19T16:20:48.120Z,1.89
2022-10-19T16:21:50.378Z,1.88
2022-10-19T16:22:48.645Z,1.78
2022-10-19T16:23:48.243Z,1.78
2022-10-19T16:24:48.160Z,1.72
2022-10-19T16:25:48.201Z,1.84
2022-10-19T16:26:48.341Z,1.8
2022-10-19T16:27:48.210Z,1.71
2022-10-19T16:28:48.492Z,1.65
2022-10-19T16:29:48.216Z,1.63
2022-10-19T16:30:51.905Z,1.49
2022-10-19T16:31:48.226Z,1.57
2022-10-19T16:32:48.521Z,1.49
2022-10-19T16:33:48.509Z,1.53
2022-10-19T16:34:48.292Z,1.47
2022-10-19T16:35:48.505Z,1.47
2022-10-19T16:36:48.313Z,1.42
2022-10-19T16:37:48.314Z,1.33
2022-10-19T16:38:48.338Z,1.35
2022-10-19T16:39:48.401Z,1.37
2022-10-19T16:40:48.369Z,1.28
2022-10-19T16:41:48.378Z,1.32
2022-10-19T16:42:48.385Z,1.25
2022-10-19T16:43:53.481Z,1.23